Time;durP1;ratioP1;P1;durP2;ratioP2;P2;SDS_P1;SDS_P2;PMS_P1;PMS_P2;Temp;Humidity;BMP_temperature;BMP_pressure;BME280_temperature;BME280_humidity;BME280_pressure;Samples;Min_cycle;Max_cycle;Signal;HPM_P1;HPM_P2
2021/05/22 00:01:55;;;;;;;34.88;21.73;;;;;;;;;;5008748;28;20034;-82
2021/05/22 00:04:22;;;;;;;15.77;4.28;;;;;;;;;;4987006;28;20176;-81
2021/05/22 00:06:49;;;;;;;17.25;6.97;;;;;;;;;;4989343;28;20448;-81
2021/05/22 00:09:17;;;;;;;17.00;4.47;;;;;;;;;;4969067;28;20037;-82
2021/05/22 00:11:45;;;;;;;15.10;4.40;;;;;;;;;;4998657;28;20113;-81
2021/05/22 00:14:13;;;;;;;17.35;5.53;;;;;;;;;;5003307;28;20096;-83
2021/05/22 00:16:39;;;;;;;16.77;3.67;;;;;;;;;;4999070;28;20045;-81
2021/05/22 00:19:06;;;;;;;14.65;4.65;;;;;;;;;;4987706;28;20124;-83
2021/05/22 00:21:33;;;;;;;12.63;3.97;;;;;;;;;;4991440;28;20116;-81
2021/05/22 00:24:00;;;;;;;16.10;3.63;;;;;;;;;;4988952;28;20115;-81
2021/05/22 00:26:30;;;;;;;13.00;3.08;;;;;;;;;;4990102;28;20095;-82
2021/05/22 00:28:57;;;;;;;19.95;8.65;;;;;;;;;;4991587;28;20592;-80
2021/05/22 00:31:23;;;;;;;14.00;3.10;;;;;;;;;;5005422;28;20030;-84
2021/05/22 00:33:51;;;;;;;15.73;3.85;;;;;;;;;;4997070;28;20025;-82
2021/05/22 00:36:21;;;;;;;18.13;5.90;;;;;;;;;;4985948;28;20152;-82
2021/05/22 00:39:06;;;;;;;19.92;5.15;;;;;;;;;;4991440;28;20089;-84
2021/05/22 00:41:34;;;;;;;14.75;3.70;;;;;;;;;;5000362;28;20030;-81
2021/05/22 00:44:03;;;;;;;14.55;3.70;;;;;;;;;;4985234;28;20025;-81
2021/05/22 00:46:30;;;;;;;17.45;4.60;;;;;;;;;;5016098;28;20042;-84
2021/05/22 00:48:56;;;;;;;15.23;3.10;;;;;;;;;;5008448;28;20049;-81
2021/05/22 00:51:23;;;;;;;18.70;3.83;;;;;;;;;;5024397;28;20021;-83
2021/05/22 00:53:50;;;;;;;22.75;5.65;;;;;;;;;;5004416;28;20735;-81
2021/05/22 00:56:17;;;;;;;14.75;2.83;;;;;;;;;;5014382;28;20058;-81
2021/05/22 00:58:44;;;;;;;18.30;6.38;;;;;;;;;;5009789;28;20034;-80
2021/05/22 01:01:12;;;;;;;14.73;4.75;;;;;;;;;;5004751;28;20033;-81
2021/05/22 01:03:47;;;;;;;14.65;3.42;;;;;;;;;;5010385;28;20044;-81
2021/05/22 01:06:17;;;;;;;14.65;4.38;;;;;;;;;;5005197;28;20124;-82
2021/05/22 01:08:45;;;;;;;14.15;3.88;;;;;;;;;;4995441;28;20044;-81
2021/05/22 01:11:16;;;;;;;15.23;2.78;;;;;;;;;;4990319;28;20138;-81
2021/05/22 01:13:46;;;;;;;15.63;3.35;;;;;;;;;;4994064;28;20025;-81
2021/05/22 01:16:12;;;;;;;14.48;2.83;;;;;;;;;;4988214;28;20053;-80
2021/05/22 01:18:40;;;;;;;16.80;3.78;;;;;;;;;;4994336;28;20032;-82
2021/05/22 01:21:07;;;;;;;17.70;3.65;;;;;;;;;;5007008;28;20088;-79
2021/05/22 01:23:41;;;;;;;14.88;3.60;;;;;;;;;;5010089;28;20947;-81
2021/05/22 01:26:08;;;;;;;14.82;2.85;;;;;;;;;;5003664;28;20079;-79
2021/05/22 01:28:35;;;;;;;16.63;4.03;;;;;;;;;;4992820;28;20049;-81
2021/05/22 01:31:02;;;;;;;11.85;2.92;;;;;;;;;;5005123;28;20029;-80
2021/05/22 01:33:30;;;;;;;13.57;2.72;;;;;;;;;;5006855;28;20030;-79
2021/05/22 01:35:57;;;;;;;10.23;2.60;;;;;;;;;;5005410;28;20030;-79
2021/05/22 01:38:24;;;;;;;14.00;3.40;;;;;;;;;;4987822;28;20327;-79
2021/05/22 01:40:52;;;;;;;13.52;2.88;;;;;;;;;;4993534;28;20036;-79
2021/05/22 01:43:20;;;;;;;10.07;2.92;;;;;;;;;;4989615;28;20037;-79
2021/05/22 01:45:47;;;;;;;14.27;2.90;;;;;;;;;;4991124;28;20445;-79
2021/05/22 01:48:18;;;;;;;14.35;2.95;;;;;;;;;;4977367;28;20046;-81
2021/05/22 01:50:50;;;;;;;14.85;3.60;;;;;;;;;;4991641;28;20036;-81
2021/05/22 01:53:19;;;;;;;10.88;2.70;;;;;;;;;;4981224;28;20029;-81
2021/05/22 01:55:48;;;;;;;10.98;2.85;;;;;;;;;;4988365;28;20371;-81
2021/05/22 01:58:15;;;;;;;13.00;2.88;;;;;;;;;;4990407;28;23278;-80
2021/05/22 02:00:45;;;;;;;12.32;2.85;;;;;;;;;;4992227;28;20727;-80
2021/05/22 02:03:22;;;;;;;13.00;2.40;;;;;;;;;;4989301;28;20041;-80
2021/05/22 02:05:50;;;;;;;13.88;2.60;;;;;;;;;;4996733;28;20128;-80
2021/05/22 02:08:19;;;;;;;10.95;3.10;;;;;;;;;;4986765;28;20034;-80
2021/05/22 02:10:49;;;;;;;12.30;2.50;;;;;;;;;;4995294;28;20030;-79
2021/05/22 02:13:17;;;;;;;11.57;2.67;;;;;;;;;;4990629;28;22399;-79
2021/05/22 02:15:54;;;;;;;11.85;2.60;;;;;;;;;;4990022;28;20582;-79
2021/05/22 02:18:24;;;;;;;14.32;2.95;;;;;;;;;;4993514;28;20033;-80
2021/05/22 02:21:00;;;;;;;14.07;2.55;;;;;;;;;;4987425;28;20096;-79
2021/05/22 02:23:31;;;;;;;11.18;2.28;;;;;;;;;;4997927;28;20375;-80
2021/05/22 02:25:58;;;;;;;12.38;2.80;;;;;;;;;;4987966;28;20029;-78
2021/05/22 02:28:29;;;;;;;9.68;2.35;;;;;;;;;;4995712;28;20030;-79
2021/05/22 02:30:56;;;;;;;15.75;3.17;;;;;;;;;;4985264;28;20030;-79
2021/05/22 02:33:25;;;;;;;11.95;2.45;;;;;;;;;;4986480;28;21085;-81
2021/05/22 02:35:53;;;;;;;11.88;2.20;;;;;;;;;;4989228;28;20212;-79
2021/05/22 02:38:24;;;;;;;12.90;2.38;;;;;;;;;;4983187;28;20163;-80
2021/05/22 02:40:54;;;;;;;12.52;2.72;;;;;;;;;;4986611;28;20396;-80
2021/05/22 02:43:22;;;;;;;10.50;2.45;;;;;;;;;;4982878;28;20038;-80
2021/05/22 02:46:00;;;;;;;11.52;2.42;;;;;;;;;;4985715;28;20026;-79
2021/05/22 02:48:30;;;;;;;12.13;2.55;;;;;;;;;;4989197;28;20056;-80
2021/05/22 02:50:57;;;;;;;11.95;2.45;;;;;;;;;;4988539;28;20038;-79
2021/05/22 02:53:27;;;;;;;11.48;2.40;;;;;;;;;;4994506;28;20049;-80
2021/05/22 02:55:55;;;;;;;11.98;2.53;;;;;;;;;;4985107;28;20049;-81
2021/05/22 02:58:24;;;;;;;11.82;2.42;;;;;;;;;;4990457;28;20030;-80
2021/05/22 03:00:50;;;;;;;14.82;2.70;;;;;;;;;;5000447;28;20811;-81
2021/05/22 03:03:17;;;;;;;15.10;2.40;;;;;;;;;;5001189;28;20115;-80
2021/05/22 03:05:44;;;;;;;14.05;2.97;;;;;;;;;;4987555;28;20366;-80
2021/05/22 03:08:14;;;;;;;13.02;2.70;;;;;;;;;;4981823;28;20691;-80
2021/05/22 03:10:41;;;;;;;12.13;2.65;;;;;;;;;;4985954;28;20022;-79
2021/05/22 03:13:08;;;;;;;9.80;2.13;;;;;;;;;;4982064;28;20029;-79
2021/05/22 03:15:38;;;;;;;9.93;2.10;;;;;;;;;;4988891;28;20036;-79
2021/05/22 03:18:05;;;;;;;11.20;2.65;;;;;;;;;;4982014;28;20026;-80
2021/05/22 03:20:31;;;;;;;10.35;2.17;;;;;;;;;;4989858;28;20034;-80
2021/05/22 03:22:57;;;;;;;10.27;2.13;;;;;;;;;;4981541;28;20022;-80
2021/05/22 03:25:26;;;;;;;8.27;1.67;;;;;;;;;;4989147;28;20157;-79
2021/05/22 03:27:52;;;;;;;10.73;2.10;;;;;;;;;;4987768;28;20065;-79
2021/05/22 03:30:21;;;;;;;12.45;2.38;;;;;;;;;;4986035;28;20032;-80
2021/05/22 03:32:48;;;;;;;8.82;2.08;;;;;;;;;;4990961;28;20449;-79
2021/05/22 03:35:15;;;;;;;10.10;2.40;;;;;;;;;;5004555;28;20208;-79
2021/05/22 03:37:42;;;;;;;;;;;;;;;;;;5008579;28;20402;-79
2021/05/22 03:40:12;;;;;;;10.85;2.38;;;;;;;;;;4992376;28;19910;-78
2021/05/22 03:42:39;;;;;;;13.60;3.03;;;;;;;;;;4993516;28;20092;-79
2021/05/22 03:45:06;;;;;;;14.15;2.38;;;;;;;;;;4987152;28;20037;-80
2021/05/22 03:47:34;;;;;;;12.20;2.38;;;;;;;;;;4994815;28;20481;-79
2021/05/22 03:50:01;;;;;;;13.07;2.03;;;;;;;;;;4989723;28;20036;-80
2021/05/22 03:52:28;;;;;;;10.68;2.78;;;;;;;;;;4994490;28;20067;-79
2021/05/22 03:54:55;;;;;;;9.98;2.17;;;;;;;;;;4987840;28;20041;-78
2021/05/22 03:57:21;;;;;;;12.38;2.67;;;;;;;;;;4994185;28;20400;-79
2021/05/22 03:59:48;;;;;;;12.07;2.50;;;;;;;;;;4992807;28;20022;-80
2021/05/22 04:02:15;;;;;;;11.07;2.25;;;;;;;;;;4992121;28;20442;-80
2021/05/22 04:04:42;;;;;;;11.77;2.53;;;;;;;;;;4990338;28;20037;-80
2021/05/22 04:07:09;;;;;;;10.50;2.50;;;;;;;;;;4989899;28;20533;-81
2021/05/22 04:09:37;;;;;;;11.00;1.88;;;;;;;;;;4993563;28;20176;-80
2021/05/22 04:12:05;;;;;;;11.20;2.20;;;;;;;;;;4991177;28;20061;-80
2021/05/22 04:14:31;;;;;;;13.05;2.70;;;;;;;;;;4992417;28;20022;-80
2021/05/22 04:16:58;;;;;;;17.70;2.92;;;;;;;;;;4988929;28;20493;-79
2021/05/22 04:19:25;;;;;;;11.35;2.53;;;;;;;;;;4993089;28;20034;-81
2021/05/22 04:21:51;;;;;;;10.98;2.60;;;;;;;;;;5004855;28;20038;-79
2021/05/22 04:24:19;;;;;;;16.35;3.42;;;;;;;;;;4991502;28;20056;-78
2021/05/22 04:26:45;;;;;;;11.07;2.67;;;;;;;;;;4992547;28;20030;-79
2021/05/22 04:29:11;;;;;;;14.45;2.65;;;;;;;;;;4986922;28;20030;-79
2021/05/22 04:31:38;;;;;;;11.38;2.33;;;;;;;;;;4994729;28;20025;-78
2021/05/22 04:34:05;;;;;;;13.88;2.78;;;;;;;;;;4989337;28;20066;-79
2021/05/22 04:36:31;;;;;;;11.95;2.50;;;;;;;;;;4992801;28;20490;-79
2021/05/22 04:38:57;;;;;;;;;;;;;;;;;;4989035;28;20026;-80
2021/05/22 04:41:23;;;;;;;11.35;2.65;;;;;;;;;;4992555;28;19917;-79
2021/05/22 04:43:52;;;;;;;14.95;2.38;;;;;;;;;;4990468;28;20097;-79
2021/05/22 04:46:18;;;;;;;10.93;2.40;;;;;;;;;;4991123;28;20034;-79
2021/05/22 04:48:44;;;;;;;14.95;2.20;;;;;;;;;;4993001;28;20151;-80
2021/05/22 04:51:12;;;;;;;;;;;;;;;;;;4986784;28;20112;-80
2021/05/22 04:53:39;;;;;;;12.25;2.47;;;;;;;;;;4989697;28;19944;-79
2021/05/22 04:56:07;;;;;;;13.50;2.38;;;;;;;;;;4986239;28;20045;-80
2021/05/22 04:58:35;;;;;;;12.75;2.63;;;;;;;;;;4996389;28;20053;-80
2021/05/22 05:01:03;;;;;;;13.02;2.90;;;;;;;;;;5002146;28;20040;-80
2021/05/22 05:03:29;;;;;;;12.38;2.63;;;;;;;;;;4988560;28;20034;-79
2021/05/22 05:05:55;;;;;;;13.90;2.50;;;;;;;;;;4999168;28;20030;-80
2021/05/22 05:08:23;;;;;;;11.18;2.42;;;;;;;;;;4987789;28;20038;-79
2021/05/22 05:10:52;;;;;;;15.50;3.00;;;;;;;;;;4996592;28;20553;-80
2021/05/22 05:13:21;;;;;;;14.10;2.60;;;;;;;;;;4984574;28;20047;-79
2021/05/22 05:15:49;;;;;;;13.18;2.60;;;;;;;;;;4987672;28;20034;-79
2021/05/22 05:18:17;;;;;;;15.05;2.90;;;;;;;;;;4999028;28;20036;-78
2021/05/22 05:20:44;;;;;;;11.95;2.90;;;;;;;;;;5011793;28;21188;-79
2021/05/22 05:23:12;;;;;;;12.77;2.22;;;;;;;;;;5001750;28;20033;-79
2021/05/22 05:25:38;;;;;;;12.02;2.42;;;;;;;;;;5006922;28;20037;-80
2021/05/22 05:28:07;;;;;;;11.52;2.80;;;;;;;;;;5011993;28;20588;-79
2021/05/22 05:30:33;;;;;;;10.18;2.47;;;;;;;;;;5009335;28;20033;-80
2021/05/22 05:33:00;;;;;;;12.57;2.75;;;;;;;;;;4991927;28;20030;-79
2021/05/22 05:35:26;;;;;;;12.10;2.13;;;;;;;;;;5008214;28;20030;-80
2021/05/22 05:37:53;;;;;;;13.35;2.60;;;;;;;;;;4998340;28;20116;-78
2021/05/22 05:40:20;;;;;;;12.93;2.20;;;;;;;;;;4987774;28;20132;-80
2021/05/22 05:42:49;;;;;;;10.80;2.22;;;;;;;;;;4992159;28;20501;-80
2021/05/22 05:45:15;;;;;;;10.50;2.53;;;;;;;;;;5008257;28;20578;-80
2021/05/22 05:47:42;;;;;;;14.32;2.33;;;;;;;;;;5006449;28;20030;-81
2021/05/22 05:50:09;;;;;;;13.90;3.08;;;;;;;;;;5009562;28;20033;-80
2021/05/22 05:52:36;;;;;;;12.05;2.60;;;;;;;;;;5009206;28;20581;-80
2021/05/22 05:55:04;;;;;;;12.98;2.58;;;;;;;;;;5003550;28;20064;-80
2021/05/22 05:57:31;;;;;;;14.60;2.75;;;;;;;;;;5009075;28;20040;-80
2021/05/22 05:59:57;;;;;;;14.68;2.50;;;;;;;;;;4989589;28;20052;-80
2021/05/22 06:02:26;;;;;;;14.35;2.28;;;;;;;;;;4991004;28;20037;-80
2021/05/22 06:04:54;;;;;;;14.93;3.05;;;;;;;;;;5009371;28;20068;-79
2021/05/22 06:07:22;;;;;;;12.82;2.78;;;;;;;;;;4991186;28;20029;-79
2021/05/22 06:09:48;;;;;;;15.23;2.72;;;;;;;;;;5009060;28;20120;-79
2021/05/22 06:12:16;;;;;;;12.85;2.35;;;;;;;;;;4990881;28;20038;-79
2021/05/22 06:14:55;;;;;;;15.23;2.80;;;;;;;;;;5001555;28;20057;-80
2021/05/22 06:17:21;;;;;;;10.80;2.67;;;;;;;;;;5006164;28;20034;-80
2021/05/22 06:19:48;;;;;;;16.20;4.63;;;;;;;;;;5022661;28;20099;-80
2021/05/22 06:22:18;;;;;;;15.93;3.83;;;;;;;;;;4993196;28;20275;-80
2021/05/22 06:24:50;;;;;;;11.98;2.20;;;;;;;;;;4995103;28;20069;-80
2021/05/22 06:27:17;;;;;;;19.05;2.65;;;;;;;;;;4979065;28;22054;-80
2021/05/22 06:29:43;;;;;;;13.18;2.42;;;;;;;;;;4990004;28;20026;-79
2021/05/22 06:32:11;;;;;;;12.88;2.70;;;;;;;;;;4990854;28;20042;-79
2021/05/22 06:34:37;;;;;;;13.60;2.60;;;;;;;;;;4991513;28;20109;-80
2021/05/22 06:37:05;;;;;;;15.27;2.67;;;;;;;;;;4989729;28;20030;-80
2021/05/22 06:39:32;;;;;;;12.57;2.25;;;;;;;;;;4986667;28;20036;-79
2021/05/22 06:41:59;;;;;;;10.20;2.05;;;;;;;;;;4991794;28;20030;-79
2021/05/22 06:44:43;;;;;;;9.38;1.70;;;;;;;;;;4989579;28;20061;-80
2021/05/22 06:47:10;;;;;;;14.95;2.22;;;;;;;;;;4985087;28;20034;-78
2021/05/22 06:49:37;;;;;;;12.48;2.20;;;;;;;;;;5002290;28;20796;-81
2021/05/22 06:52:06;;;;;;;12.98;2.30;;;;;;;;;;4996497;28;20320;-79
2021/05/22 06:54:34;;;;;;;14.63;3.08;;;;;;;;;;4987833;28;20041;-80
2021/05/22 06:57:01;;;;;;;10.52;1.83;;;;;;;;;;4983693;28;20038;-79
2021/05/22 06:59:27;;;;;;;14.48;2.60;;;;;;;;;;4989637;28;20651;-80
2021/05/22 07:01:55;;;;;;;13.23;2.30;;;;;;;;;;4984559;28;20033;-80
2021/05/22 07:04:49;;;;;;;11.57;2.00;;;;;;;;;;4983647;28;20480;-79
2021/05/22 07:07:18;;;;;;;14.90;3.10;;;;;;;;;;4983896;28;21078;-81
2021/05/22 07:09:44;;;;;;;12.57;2.28;;;;;;;;;;4985562;28;20026;-79
2021/05/22 07:12:12;;;;;;;10.23;2.17;;;;;;;;;;4984376;28;20026;-80
2021/05/22 07:14:38;;;;;;;12.60;2.28;;;;;;;;;;5003147;28;20735;-79
2021/05/22 07:17:04;;;;;;;10.57;2.03;;;;;;;;;;4986527;28;20022;-79
2021/05/22 07:19:31;;;;;;;13.57;2.40;;;;;;;;;;4986862;28;20026;-79
2021/05/22 07:21:58;;;;;;;14.45;2.47;;;;;;;;;;4985589;28;20099;-79
2021/05/22 07:24:25;;;;;;;11.90;1.98;;;;;;;;;;4987022;28;20042;-78
2021/05/22 07:26:56;;;;;;;9.30;1.75;;;;;;;;;;4988013;28;20037;-80
2021/05/22 07:29:24;;;;;;;9.25;1.75;;;;;;;;;;4981700;28;20022;-80
2021/05/22 07:31:53;;;;;;;11.80;2.22;;;;;;;;;;4990664;28;20053;-79
2021/05/22 07:34:19;;;;;;;10.82;2.03;;;;;;;;;;4984037;28;20036;-80
2021/05/22 07:36:46;;;;;;;11.43;2.15;;;;;;;;;;4988974;28;20099;-79
2021/05/22 07:39:13;;;;;;;11.07;2.17;;;;;;;;;;4985034;28;20107;-79
2021/05/22 07:41:42;;;;;;;11.52;2.00;;;;;;;;;;4983618;28;20113;-79
2021/05/22 07:44:10;;;;;;;11.25;2.38;;;;;;;;;;4986738;28;20021;-80
2021/05/22 07:46:39;;;;;;;11.93;2.10;;;;;;;;;;4983502;28;20041;-79
2021/05/22 07:49:06;;;;;;;13.32;2.85;;;;;;;;;;4990036;28;20386;-79
2021/05/22 07:51:36;;;;;;;12.20;2.20;;;;;;;;;;4985292;28;20045;-79
2021/05/22 07:54:03;;;;;;;14.23;2.33;;;;;;;;;;4981743;28;21608;-79
2021/05/22 07:56:29;;;;;;;14.43;2.28;;;;;;;;;;4983854;28;20026;-80
2021/05/22 07:58:56;;;;;;;11.38;2.30;;;;;;;;;;4984373;28;20022;-80
2021/05/22 08:01:22;;;;;;;12.18;2.13;;;;;;;;;;4985445;28;20041;-79
2021/05/22 08:03:51;;;;;;;11.32;2.40;;;;;;;;;;4983559;28;20038;-77
2021/05/22 08:06:18;;;;;;;13.07;2.83;;;;;;;;;;5010175;28;20491;-79
2021/05/22 08:08:47;;;;;;;13.70;2.17;;;;;;;;;;4984903;28;20033;-81
2021/05/22 08:11:15;;;;;;;11.45;2.50;;;;;;;;;;4979817;28;20030;-81
2021/05/22 08:13:45;;;;;;;10.90;2.30;;;;;;;;;;4997722;28;20022;-82
2021/05/22 08:16:12;;;;;;;12.98;2.22;;;;;;;;;;4991818;28;20132;-82
2021/05/22 08:18:40;;;;;;;12.75;2.70;;;;;;;;;;4997482;28;20121;-84
2021/05/22 08:21:06;;;;;;;11.65;2.38;;;;;;;;;;4973237;28;20061;-81
2021/05/22 08:23:33;;;;;;;12.55;2.20;;;;;;;;;;4992878;28;20046;-84
2021/05/22 08:25:59;;;;;;;15.98;2.80;;;;;;;;;;4988567;28;20112;-83
2021/05/22 08:28:29;;;;;;;12.30;2.70;;;;;;;;;;4991337;28;20049;-83
2021/05/22 08:30:58;;;;;;;15.10;3.03;;;;;;;;;;5008186;28;20033;-86
2021/05/22 08:33:25;;;;;;;16.17;2.97;;;;;;;;;;4996224;28;20061;-88
2021/05/22 08:35:52;;;;;;;13.63;2.88;;;;;;;;;;4999603;28;20162;-87
2021/05/22 08:38:19;;;;;;;12.55;2.78;;;;;;;;;;4997115;28;20030;-87
2021/05/22 08:40:45;;;;;;;15.25;2.78;;;;;;;;;;4999296;28;20037;-87
2021/05/22 08:43:37;;;;;;;18.52;3.28;;;;;;;;;;5003063;28;20030;-87
2021/05/22 08:46:11;;;;;;;12.70;2.63;;;;;;;;;;5000881;28;20045;-87
2021/05/22 08:48:38;;;;;;;12.93;2.63;;;;;;;;;;5005602;28;20108;-89
2021/05/22 08:51:07;;;;;;;15.10;3.03;;;;;;;;;;5002764;28;20077;-86
2021/05/22 08:53:35;;;;;;;13.40;2.88;;;;;;;;;;5003575;28;20035;-88
2021/05/22 08:56:02;;;;;;;14.00;2.83;;;;;;;;;;5001499;28;20161;-88
2021/05/22 08:58:31;;;;;;;15.60;2.70;;;;;;;;;;5004818;28;20119;-86
2021/05/22 09:01:01;;;;;;;16.52;2.92;;;;;;;;;;5018116;28;20057;-87
2021/05/22 09:03:28;;;;;;;14.88;2.88;;;;;;;;;;5001465;28;20087;-86
2021/05/22 09:05:55;;;;;;;15.02;3.58;;;;;;;;;;5008206;28;20832;-87
2021/05/22 09:08:21;;;;;;;14.13;2.90;;;;;;;;;;5001597;28;20042;-88
2021/05/22 09:10:51;;;;;;;14.23;2.78;;;;;;;;;;5011125;28;20014;-95
2021/05/22 09:13:24;;;;;;;14.80;3.20;;;;;;;;;;5010149;28;20030;-94
2021/05/22 09:16:12;;;;;;;15.75;3.03;;;;;;;;;;5014179;28;20026;-92
2021/05/22 09:19:08;;;;;;;11.30;2.45;;;;;;;;;;5030570;28;20100;-93
2021/05/22 09:21:38;;;;;;;12.70;2.42;;;;;;;;;;5015691;28;20029;-91
2021/05/22 09:24:12;;;;;;;12.52;2.65;;;;;;;;;;5013665;28;20042;-91
2021/05/22 09:26:39;;;;;;;10.70;2.58;;;;;;;;;;5016093;28;20210;-91
2021/05/22 09:29:06;;;;;;;12.75;2.55;;;;;;;;;;5017404;28;20030;-90
2021/05/22 09:34:29;;;;;;;14.20;2.72;;;;;;;;;;4992270;28;20041;-88
2021/05/22 09:36:56;;;;;;;11.93;2.35;;;;;;;;;;4997374;28;20041;-86
2021/05/22 09:39:24;;;;;;;15.82;2.67;;;;;;;;;;4996832;28;20601;-87
2021/05/22 09:41:51;;;;;;;11.05;2.08;;;;;;;;;;5006622;28;20041;-86
2021/05/22 09:44:25;;;;;;;11.85;2.15;;;;;;;;;;5004716;28;20042;-86
2021/05/22 09:47:03;;;;;;;11.10;2.53;;;;;;;;;;5003875;28;20083;-84
2021/05/22 09:49:35;;;;;;;10.55;2.30;;;;;;;;;;4996688;28;20030;-87
2021/05/22 09:52:17;;;;;;;13.07;2.45;;;;;;;;;;4994658;28;20022;-88
2021/05/22 09:54:53;;;;;;;8.93;2.10;;;;;;;;;;5015676;28;20077;-88
2021/05/22 09:57:32;;;;;;;13.60;2.13;;;;;;;;;;4998281;28;20058;-87
2021/05/22 10:00:37;;;;;;;12.00;2.10;;;;;;;;;;4995601;28;20034;-87
2021/05/22 10:03:28;;;;;;;9.88;2.00;;;;;;;;;;4981984;28;20025;-82
2021/05/22 10:08:49;;;;;;;10.95;2.15;;;;;;;;;;4995471;28;20057;-86
2021/05/22 10:11:15;;;;;;;10.40;2.40;;;;;;;;;;4975277;28;20184;-86
2021/05/22 10:13:44;;;;;;;11.55;2.40;;;;;;;;;;4995892;28;20054;-85
2021/05/22 10:16:12;;;;;;;14.32;2.30;;;;;;;;;;4991300;28;20756;-86
2021/05/22 10:18:40;;;;;;;10.18;1.90;;;;;;;;;;4976745;28;20052;-86
2021/05/22 10:21:08;;;;;;;12.13;2.33;;;;;;;;;;4979936;28;20132;-87
2021/05/22 10:23:38;;;;;;;8.23;2.08;;;;;;;;;;4996323;28;20041;-87
2021/05/22 10:26:06;;;;;;;11.45;2.58;;;;;;;;;;4981014;28;20044;-87
2021/05/22 10:28:33;;;;;;;8.80;2.20;;;;;;;;;;4992417;28;20080;-86
2021/05/22 10:33:56;;;;;;;13.35;2.10;;;;;;;;;;4994726;28;20081;-87
2021/05/22 10:36:43;;;;;;;10.63;2.08;;;;;;;;;;5014124;28;20034;-86
2021/05/22 10:39:30;;;;;;;10.70;1.90;;;;;;;;;;5017664;28;20036;-86
2021/05/22 10:41:56;;;;;;;10.85;2.55;;;;;;;;;;5036918;28;20029;-87
2021/05/22 10:44:32;;;;;;;10.35;2.15;;;;;;;;;;5008526;28;20038;-85
2021/05/22 10:47:06;;;;;;;11.55;2.55;;;;;;;;;;5003767;28;20073;-84
2021/05/22 10:49:52;;;;;;;9.43;2.00;;;;;;;;;;4995976;28;20043;-86
2021/05/22 10:52:23;;;;;;;14.68;2.00;;;;;;;;;;4986417;28;20034;-85
2021/05/22 10:54:57;;;;;;;9.63;2.17;;;;;;;;;;4993874;28;20042;-84
2021/05/22 10:57:30;;;;;;;13.70;2.00;;;;;;;;;;4992185;28;20458;-84
2021/05/22 11:00:19;;;;;;;10.23;1.77;;;;;;;;;;4988537;28;20046;-86
2021/05/22 11:02:47;;;;;;;13.23;2.40;;;;;;;;;;4991881;28;20033;-86
2021/05/22 11:05:32;;;;;;;11.70;2.10;;;;;;;;;;4988085;28;20061;-85
2021/05/22 11:10:59;;;;;;;8.68;1.95;;;;;;;;;;4986868;28;20044;-85
2021/05/22 11:13:32;;;;;;;10.75;2.20;;;;;;;;;;4997396;28;20030;-83
2021/05/22 11:16:03;;;;;;;11.73;2.03;;;;;;;;;;4990600;28;20057;-86
2021/05/22 11:18:38;;;;;;;12.50;2.33;;;;;;;;;;4991017;28;20117;-87
2021/05/22 11:21:05;;;;;;;;;;;;;;;;;;4990505;28;20038;-83
2021/05/22 11:23:55;;;;;;;11.15;1.98;;;;;;;;;;4999377;28;20383;-82
2021/05/22 11:26:53;;;;;;;10.45;1.90;;;;;;;;;;4990383;28;20604;-85
2021/05/22 11:29:22;;;;;;;11.38;1.90;;;;;;;;;;4988292;28;20030;-83
2021/05/22 11:31:49;;;;;;;13.93;2.33;;;;;;;;;;4994195;28;20027;-84
2021/05/22 11:34:24;;;;;;;9.48;1.90;;;;;;;;;;4986871;28;20781;-86
2021/05/22 11:37:10;;;;;;;11.60;3.28;;;;;;;;;;4991105;28;20018;-86
2021/05/22 11:45:39;;;;;;;15.70;8.13;;;;;;;;;;4993995;28;20524;-86
2021/05/22 11:48:21;;;;;;;10.68;3.10;;;;;;;;;;4985831;28;20496;-85
2021/05/22 11:50:49;;;;;;;34.97;26.90;;;;;;;;;;4990454;28;20056;-86
2021/05/22 11:53:17;;;;;;;20.05;14.48;;;;;;;;;;4992569;28;20030;-85
2021/05/22 11:55:46;;;;;;;23.38;16.83;;;;;;;;;;4993334;28;20049;-83
2021/05/22 11:58:38;;;;;;;19.33;11.93;;;;;;;;;;4987913;28;20038;-84
2021/05/22 12:01:35;;;;;;;13.07;5.90;;;;;;;;;;4985726;28;20026;-85
2021/05/22 12:04:27;;;;;;;14.05;4.15;;;;;;;;;;5003608;28;20384;-84
2021/05/22 12:06:55;;;;;;;16.33;6.00;;;;;;;;;;4990827;28;20144;-86
2021/05/22 12:09:23;;;;;;;12.73;4.13;;;;;;;;;;4990617;28;20037;-84
2021/05/22 12:12:08;;;;;;;10.00;2.30;;;;;;;;;;5004927;28;20214;-85
2021/05/22 12:14:38;;;;;;;11.98;2.45;;;;;;;;;;4985936;28;20474;-85
2021/05/22 12:19:59;;;;;;;13.75;3.30;;;;;;;;;;4987650;28;20087;-85
2021/05/22 12:22:31;;;;;;;11.07;3.05;;;;;;;;;;4984583;28;20022;-85
2021/05/22 12:24:58;;;;;;;13.57;5.28;;;;;;;;;;4981927;28;20018;-86
2021/05/22 12:27:26;;;;;;;10.82;2.70;;;;;;;;;;4996606;28;20176;-89
2021/05/22 12:29:54;;;;;;;12.25;3.35;;;;;;;;;;4993556;28;20084;-88
2021/05/22 12:32:21;;;;;;;20.23;12.27;;;;;;;;;;4991589;28;20030;-85
2021/05/22 12:34:58;;;;;;;15.95;8.25;;;;;;;;;;4989706;28;20025;-89
2021/05/22 12:37:24;;;;;;;13.40;3.35;;;;;;;;;;4990839;28;20026;-86
2021/05/22 12:39:52;;;;;;;14.77;5.47;;;;;;;;;;4995872;28;20034;-87
2021/05/22 12:42:23;;;;;;;18.80;7.70;;;;;;;;;;5000364;28;20037;-84
2021/05/22 12:44:51;;;;;;;9.18;2.40;;;;;;;;;;4991519;28;20241;-85
2021/05/22 12:47:21;;;;;;;10.77;2.75;;;;;;;;;;4985905;28;20038;-83
2021/05/22 12:49:56;;;;;;;42.95;37.38;;;;;;;;;;4991000;28;20064;-85
2021/05/22 12:52:28;;;;;;;17.47;9.43;;;;;;;;;;4988097;28;20051;-84
2021/05/22 12:54:56;;;;;;;15.20;5.82;;;;;;;;;;4986957;28;20045;-85
2021/05/22 12:57:44;;;;;;;10.55;3.92;;;;;;;;;;4969498;28;20030;-84
2021/05/22 13:00:13;;;;;;;26.63;19.35;;;;;;;;;;4989065;28;20042;-84
2021/05/22 13:02:47;;;;;;;16.10;7.28;;;;;;;;;;4995969;28;20686;-87
2021/05/22 13:05:37;;;;;;;12.75;5.47;;;;;;;;;;4990887;28;20117;-84
2021/05/22 13:08:30;;;;;;;11.45;3.08;;;;;;;;;;4990750;28;20061;-85
2021/05/22 13:11:08;;;;;;;13.15;5.47;;;;;;;;;;4989057;28;20045;-84
2021/05/22 13:13:34;;;;;;;21.88;14.63;;;;;;;;;;4992372;28;20022;-85
2021/05/22 13:16:05;;;;;;;13.05;4.43;;;;;;;;;;4982173;28;20022;-84
2021/05/22 13:18:32;;;;;;;14.65;6.20;;;;;;;;;;5007075;28;20029;-85
2021/05/22 13:21:04;;;;;;;13.70;5.50;;;;;;;;;;4983801;28;20821;-87
2021/05/22 13:23:41;;;;;;;11.38;4.50;;;;;;;;;;4997582;28;20425;-85
2021/05/22 13:26:18;;;;;;;19.85;10.50;;;;;;;;;;4986196;28;20030;-85
2021/05/22 13:28:48;;;;;;;12.75;4.78;;;;;;;;;;4992577;28;20026;-86
2021/05/22 13:31:19;;;;;;;11.93;2.88;;;;;;;;;;4991433;28;20038;-85
2021/05/22 13:33:50;;;;;;;12.60;4.75;;;;;;;;;;4977396;28;20115;-87
2021/05/22 13:39:30;;;;;;;9.55;3.63;;;;;;;;;;4999608;28;20099;-88
2021/05/22 13:42:23;;;;;;;12.85;3.60;;;;;;;;;;5013760;28;20050;-87
2021/05/22 13:44:51;;;;;;;16.48;4.80;;;;;;;;;;4999229;28;20036;-89
2021/05/22 13:47:18;;;;;;;10.20;3.15;;;;;;;;;;4995993;28;20068;-90
2021/05/22 13:49:44;;;;;;;11.23;3.60;;;;;;;;;;5008308;28;20113;-88
2021/05/22 13:52:12;;;;;;;12.23;3.33;;;;;;;;;;4997452;28;20044;-90
2021/05/22 13:54:38;;;;;;;13.65;5.25;;;;;;;;;;5018896;28;20038;-88
2021/05/22 13:57:04;;;;;;;17.30;6.57;;;;;;;;;;5000768;28;20019;-89
2021/05/22 13:59:31;;;;;;;12.20;3.40;;;;;;;;;;5007767;28;20089;-89
2021/05/22 14:01:57;;;;;;;10.55;3.00;;;;;;;;;;5019409;28;20061;-90
2021/05/22 14:04:24;;;;;;;14.18;3.70;;;;;;;;;;5006959;28;20041;-90
2021/05/22 14:06:53;;;;;;;12.73;2.97;;;;;;;;;;5007852;28;20052;-88
2021/05/22 14:09:20;;;;;;;12.75;2.90;;;;;;;;;;5009225;28;20115;-88
2021/05/22 14:11:46;;;;;;;10.82;2.50;;;;;;;;;;5019469;28;20021;-88
2021/05/22 14:14:13;;;;;;;10.07;2.42;;;;;;;;;;5007499;28;20048;-88
2021/05/22 14:17:04;;;;;;;8.40;2.25;;;;;;;;;;5007051;28;20044;-88
2021/05/22 14:19:32;;;;;;;12.57;3.30;;;;;;;;;;5004346;28;20033;-90
2021/05/22 14:21:59;;;;;;;12.50;2.85;;;;;;;;;;5017768;28;20033;-88
2021/05/22 14:24:25;;;;;;;10.00;2.40;;;;;;;;;;5018342;28;20026;-89
2021/05/22 14:26:51;;;;;;;10.02;2.38;;;;;;;;;;5006756;28;20541;-89
2021/05/22 14:29:18;;;;;;;11.43;2.95;;;;;;;;;;5000575;28;21520;-89
2021/05/22 14:31:46;;;;;;;9.40;2.25;;;;;;;;;;4998317;28;20030;-87
2021/05/22 14:34:12;;;;;;;12.65;2.40;;;;;;;;;;4996951;28;20036;-90
2021/05/22 14:36:38;;;;;;;11.45;2.70;;;;;;;;;;4999441;28;20030;-87
2021/05/22 14:39:07;;;;;;;10.48;2.75;;;;;;;;;;4998051;28;20056;-88
2021/05/22 14:41:34;;;;;;;12.55;3.13;;;;;;;;;;4999123;28;20088;-89
2021/05/22 14:44:02;;;;;;;10.43;2.63;;;;;;;;;;4995538;28;20044;-88
2021/05/22 14:46:32;;;;;;;11.25;3.10;;;;;;;;;;4996413;28;20054;-86
2021/05/22 14:49:08;;;;;;;10.77;2.65;;;;;;;;;;4987028;28;20034;-87
2021/05/22 14:51:35;;;;;;;10.48;2.20;;;;;;;;;;4998103;28;20743;-87
2021/05/22 14:54:02;;;;;;;9.65;2.70;;;;;;;;;;5001949;28;20057;-87
2021/05/22 14:56:30;;;;;;;8.93;2.30;;;;;;;;;;4995288;28;20046;-88
2021/05/22 14:59:00;;;;;;;13.38;3.50;;;;;;;;;;4992010;28;20030;-87
2021/05/22 15:01:28;;;;;;;12.32;3.88;;;;;;;;;;4999130;28;20142;-88
2021/05/22 15:03:55;;;;;;;12.60;3.45;;;;;;;;;;4992556;28;20057;-88
2021/05/22 15:06:24;;;;;;;13.05;2.78;;;;;;;;;;4994607;28;20037;-88
2021/05/22 15:08:52;;;;;;;17.30;9.75;;;;;;;;;;4998709;28;20049;-88
2021/05/22 15:11:20;;;;;;;10.52;3.55;;;;;;;;;;4995447;28;20632;-87